Heat Index SAI AWOS Graphical Display Untitled Document
Bertrand Chaffee Hospital Heliport (2NK6) Springville, New York, USA
120
09:57
29/08/2014
00
N/A
N/A
30.18
N/A
1420
47(F), 8(C)
46(F), 8(C)
47 F
96%
FEW039
10
N/A
0"
N/A
09:57 zulu Wind Calm, Altimeter 30.18
METAR K2NK6 290957Z AUTO 00000KT 10SM FEW039 08/08 A3018 A02 P0000
METAR:
FAA Disclaimer--Advisory Use ONLY, not for flight info--
INFO:
Wind Direction:
Wind Speed:
Wind Gust:
Wind Variable:
Altimeter:
Dens Alt:
Elev:
Temp:
Dwpt:
Wind Chill
Rel Humidity:
Ceiling:
Visibility:
Prsnt Wea:
PCPN:
Remarks:
How to read the WebPage